Time;durP1;ratioP1;P1;durP2;ratioP2;P2;SDS_P1;SDS_P2;PMS_P1;PMS_P2;Temp;Humidity;BMP_temperature;BMP_pressure;BME280_temperature;BME280_humidity;BME280_pressure;Samples;Min_cycle;Max_cycle;Signal;HPM_P1;HPM_P2
2022/04/02 00:01:41;;;;;;;8.13;3.35;;;;;;;10.82;71.43;95930.00;10293141;28;19963;-61
2022/04/02 00:06:40;;;;;;;5.32;3.00;;;;;;;10.65;70.97;95903.75;10294122;28;20076;-61
2022/04/02 00:11:39;;;;;;;7.18;3.10;;;;;;;10.64;70.80;95920.22;10293754;28;20036;-61
2022/04/02 00:16:38;;;;;;;6.18;2.70;;;;;;;9.98;71.20;95809.00;10293229;28;20033;-61
2022/04/02 00:21:38;;;;;;;9.35;3.72;;;;;;;10.57;71.68;95932.53;10293589;28;20038;-61
2022/04/02 00:26:37;;;;;;;6.10;2.95;;;;;;;10.60;71.35;95929.84;10292785;28;20084;-61
2022/04/02 00:31:37;;;;;;;6.75;3.05;;;;;;;10.54;71.77;95922.22;10292690;28;20038;-61
2022/04/02 00:36:37;;;;;;;11.73;3.72;;;;;;;10.43;71.74;95925.16;10293033;28;20468;-61
2022/04/02 00:41:37;;;;;;;10.80;3.78;;;;;;;10.44;71.95;95928.59;10292080;28;20072;-61
2022/04/02 00:46:36;;;;;;;8.45;3.63;;;;;;;10.20;72.04;95905.94;10292305;28;20089;-61
2022/04/02 00:51:41;;;;;;;7.90;3.75;;;;;;;10.50;71.84;95941.41;10292649;28;20065;-61
2022/04/02 00:56:42;;;;;;;7.05;3.20;;;;;;;10.54;71.43;95958.53;10292324;28;20063;-61
2022/04/02 01:01:43;;;;;;;7.82;3.28;;;;;;;10.58;71.08;95955.81;10291218;28;20060;-61
2022/04/02 01:06:42;;;;;;;14.43;4.15;;;;;;;10.52;69.97;95945.66;10292001;28;20491;-61
2022/04/02 01:11:43;;;;;;;10.63;3.33;;;;;;;10.39;70.24;95908.00;10291322;28;20511;-61
2022/04/02 01:16:42;;;;;;;9.93;4.55;;;;;;;10.24;69.64;95883.38;10290497;28;20061;-61
2022/04/02 01:21:45;;;;;;;9.15;3.95;;;;;;;10.43;69.06;95896.66;10291744;28;20065;-61
2022/04/02 01:26:44;;;;;;;11.25;5.05;;;;;;;10.39;69.80;95908.84;10290713;28;20092;-61
2022/04/02 01:31:44;;;;;;;10.95;4.95;;;;;;;10.68;70.23;95955.53;10290354;28;20061;-61
2022/04/02 01:36:43;;;;;;;7.60;3.38;;;;;;;10.67;70.50;95970.25;10290838;28;20058;-61
2022/04/02 01:41:42;;;;;;;7.93;4.22;;;;;;;10.66;69.97;95984.13;10290671;28;20033;-61
2022/04/02 01:46:41;;;;;;;11.40;4.90;;;;;;;10.26;70.40;95927.38;10290289;28;20085;-61
2022/04/02 01:51:40;;;;;;;8.23;3.20;;;;;;;10.11;71.42;95897.59;10290219;28;20030;-61
2022/04/02 01:56:39;;;;;;;6.63;3.78;;;;;;;10.36;71.57;96002.28;10290490;28;20734;-61
2022/04/02 02:01:38;;;;;;;9.15;3.70;;;;;;;9.87;70.71;95919.88;10289978;28;20061;-61
2022/04/02 02:06:39;;;;;;;7.45;2.58;;;;;;;10.47;69.65;96003.72;10289726;28;20177;-61
2022/04/02 02:11:38;;;;;;;7.93;3.00;;;;;;;10.46;68.89;96015.81;10290566;28;20491;-61
2022/04/02 02:16:37;;;;;;;;;;;;;;;10.41;67.98;96020.31;10290419;28;20053;-61
2022/04/02 02:21:36;;;;;;;5.40;2.78;;;;;;;10.38;66.82;96017.81;10288561;28;19996;-61
2022/04/02 02:26:35;;;;;;;5.90;2.38;;;;;;;10.33;67.60;96041.25;10294050;28;20507;-61
2022/04/02 02:31:34;;;;;;;2.55;1.15;;;;;;;10.24;65.67;96041.50;10297987;28;20084;-61
2022/04/02 02:36:33;;;;;;;3.03;1.20;;;;;;;10.25;64.47;96047.53;10295715;28;20041;-61
2022/04/02 02:41:32;;;;;;;3.13;1.67;;;;;;;10.20;63.17;96022.59;10297307;28;20070;-62
2022/04/02 02:46:32;;;;;;;3.42;1.30;;;;;;;10.19;63.12;96020.03;10297382;28;20120;-62
2022/04/02 02:51:31;;;;;;;2.72;1.00;;;;;;;9.39;61.07;95905.59;10296665;28;20099;-61
2022/04/02 02:56:30;;;;;;;3.38;1.23;;;;;;;9.96;60.22;96002.53;10297273;28;20032;-61
2022/04/02 03:01:28;;;;;;;2.92;1.30;;;;;;;10.12;60.58;96034.94;10296519;28;20025;-62
2022/04/02 03:06:27;;;;;;;3.15;1.50;;;;;;;9.95;59.35;96001.66;10298690;28;20030;-61
2022/04/02 03:11:26;;;;;;;4.72;1.70;;;;;;;10.35;58.75;96065.38;10299658;28;20559;-61
2022/04/02 03:16:25;;;;;;;2.35;0.85;;;;;;;10.20;58.57;96032.13;10299424;28;20396;-61
2022/04/02 03:21:24;;;;;;;1.45;1.25;;;;;;;9.87;58.26;95964.75;10299017;28;20029;-62
2022/04/02 03:26:26;;;;;;;3.05;1.20;;;;;;;10.35;57.74;96041.19;10298988;28;20064;-62
2022/04/02 03:31:25;;;;;;;2.90;1.00;;;;;;;10.04;57.24;96029.06;10298572;28;20519;-62
2022/04/02 03:36:24;;;;;;;3.63;0.95;;;;;;;10.56;58.61;96082.09;10297480;28;20061;-62
2022/04/02 03:41:25;;;;;;;5.60;1.60;;;;;;;10.36;57.73;96028.22;10299462;28;20117;-62
2022/04/02 03:51:42;;;;;;;1.98;0.80;;;;;;;10.67;54.62;96080.97;10297863;28;20065;-62
2022/04/02 03:56:41;;;;;;;2.47;1.40;;;;;;;10.87;54.35;96081.28;10298080;28;20022;-62
2022/04/02 04:01:40;;;;;;;4.40;1.63;;;;;;;10.62;55.42;96030.06;10297087;28;20069;-61
2022/04/02 04:06:39;;;;;;;3.78;1.67;;;;;;;10.90;56.29;96076.00;10294069;28;20097;-62
2022/04/02 04:11:38;;;;;;;3.58;1.45;;;;;;;10.46;57.83;96059.06;10293829;28;20076;-62
2022/04/02 04:16:37;;;;;;;30.23;14.32;;;;;;;10.53;57.10;96097.75;10293221;28;20061;-62
2022/04/02 04:21:37;;;;;;;7.07;3.10;;;;;;;9.99;57.47;96038.72;10292850;28;20093;-62
2022/04/02 04:26:38;;;;;;;10.07;4.45;;;;;;;10.26;57.92;96103.66;10292939;28;20065;-62
2022/04/02 04:31:37;;;;;;;23.05;7.03;;;;;;;10.02;57.39;96079.25;10292942;28;20076;-62
2022/04/02 04:36:36;;;;;;;23.13;12.07;;;;;;;10.15;57.89;96117.78;10292612;28;20057;-62
2022/04/02 04:41:38;;;;;;;12.43;7.00;;;;;;;10.26;57.18;96111.44;10292419;28;20145;-62
2022/04/02 04:46:37;;;;;;;9.70;5.28;;;;;;;10.37;57.57;96112.03;10287871;28;20143;-62
2022/04/02 04:51:37;;;;;;;2.08;1.40;;;;;;;10.33;55.19;96111.28;10289118;28;20088;-62
2022/04/02 04:56:36;;;;;;;10.15;4.20;;;;;;;10.48;56.56;96104.81;10288849;28;20610;-62
2022/04/02 05:01:35;;;;;;;37.72;26.02;;;;;;;10.50;55.19;96128.13;10291851;28;20090;-62
2022/04/02 05:06:35;;;;;;;2.72;1.25;;;;;;;10.19;49.59;96020.91;10291422;28;20526;-62
2022/04/02 05:11:35;;;;;;;2.70;1.30;;;;;;;11.32;50.86;96117.16;10291261;28;20076;-62
2022/04/02 05:16:34;;;;;;;3.25;2.10;;;;;;;11.41;51.81;96109.09;10291477;28;20072;-62
2022/04/02 05:21:33;;;;;;;4.30;2.72;;;;;;;11.56;53.28;96128.53;10290695;28;20091;-62
2022/04/02 05:26:32;;;;;;;8.60;2.35;;;;;;;11.48;52.22;96127.06;10291033;28;20487;-62
2022/04/02 05:31:31;;;;;;;10.52;4.68;;;;;;;11.59;51.00;96112.84;10290588;28;20411;-62
2022/04/02 05:36:31;;;;;;;12.77;6.03;;;;;;;11.87;51.30;96128.41;10290527;28;20073;-62
2022/04/02 05:41:30;;;;;;;5.10;2.80;;;;;;;11.93;50.73;96118.72;10290099;28;20069;-62
2022/04/02 05:46:29;;;;;;;;;;;;;;;11.94;48.13;96120.41;10290915;28;20089;-62
2022/04/02 05:51:27;;;;;;;5.60;1.73;;;;;;;11.73;47.82;96063.03;10287908;28;19913;-62
2022/04/02 05:56:27;;;;;;;4.07;1.60;;;;;;;12.49;48.48;96129.84;10287411;28;20109;-62
2022/04/02 06:01:27;;;;;;;5.85;2.80;;;;;;;12.21;47.18;96059.69;10286385;28;20476;-63
2022/04/02 06:06:26;;;;;;;3.92;1.90;;;;;;;12.90;47.38;96131.88;10288925;28;20507;-62
2022/04/02 06:11:25;;;;;;;2.55;1.38;;;;;;;13.07;46.39;96129.53;10289802;28;20018;-62
2022/04/02 06:16:25;;;;;;;1.27;0.98;;;;;;;13.03;47.35;96101.03;10290067;28;20078;-62
2022/04/02 06:21:24;;;;;;;1.98;1.42;;;;;;;13.38;46.11;96135.34;10290594;28;20065;-63
2022/04/02 06:26:23;;;;;;;2.78;1.50;;;;;;;13.50;45.81;96142.69;10289559;28;20136;-63
2022/04/02 06:31:22;;;;;;;2.53;1.27;;;;;;;13.68;45.05;96136.78;10289608;28;20033;-62
2022/04/02 06:36:21;;;;;;;2.38;1.20;;;;;;;13.80;44.71;96143.28;10289247;28;20141;-62
2022/04/02 06:41:20;;;;;;;5.53;1.70;;;;;;;13.67;44.81;96082.94;10289345;28;20072;-63
2022/04/02 06:46:19;;;;;;;2.45;1.20;;;;;;;14.00;45.00;96121.59;10289329;28;20054;-63
2022/04/02 06:51:18;;;;;;;2.28;1.10;;;;;;;14.04;43.62;96140.59;10288556;28;20168;-63
2022/04/02 06:56:18;;;;;;;1.83;0.70;;;;;;;13.93;40.96;96113.16;10288907;28;20072;-63
2022/04/02 07:01:17;;;;;;;2.65;1.40;;;;;;;14.27;39.62;96132.66;10288016;28;20061;-63
2022/04/02 07:06:16;;;;;;;4.38;1.60;;;;;;;14.47;39.25;96157.06;10288243;28;20037;-63
2022/04/02 07:11:15;;;;;;;2.95;1.02;;;;;;;14.29;39.25;96102.16;10288651;28;20057;-63
2022/04/02 07:16:16;;;;;;;5.32;1.25;;;;;;;14.50;39.42;96143.88;10296310;28;20033;-63
2022/04/02 07:21:16;;;;;;;2.45;1.00;;;;;;;14.46;37.64;96148.41;10295531;28;20504;-63
2022/04/02 07:26:16;;;;;;;2.38;0.90;;;;;;;14.21;40.70;96112.03;10295525;28;20061;-63
2022/04/02 07:31:15;;;;;;;3.28;1.40;;;;;;;14.52;40.95;96126.41;10296896;28;20061;-63
2022/04/02 07:36:27;;;;;;;2.08;1.25;;;;;;;14.96;40.11;96139.31;10294941;28;20132;-63
2022/04/02 07:41:52;;;;;;;2.20;1.20;;;;;;;15.43;39.61;96154.59;10294886;28;20069;-63
2022/04/02 07:46:52;;;;;;;1.05;0.98;;;;;;;15.75;39.61;96144.44;10294385;28;20089;-63
2022/04/02 07:51:53;;;;;;;6.72;2.38;;;;;;;15.76;38.18;96099.03;10295676;28;20061;-63
2022/04/02 07:57:00;;;;;;;5.18;1.90;;;;;;;16.33;38.77;96152.09;10294010;28;20539;-63
2022/04/02 08:02:00;;;;;;;5.00;2.08;;;;;;;15.64;34.62;96101.31;10293977;28;20069;-63
2022/04/02 08:06:59;;;;;;;4.07;1.70;;;;;;;15.70;35.58;96146.41;10296902;28;20063;-63
2022/04/02 08:11:58;;;;;;;;;;;;;;;16.03;36.30;96150.06;10297447;28;20068;-63
2022/04/02 08:16:58;;;;;;;3.70;1.13;;;;;;;16.11;35.52;96106.97;10296883;28;19949;-63
2022/04/02 08:21:56;;;;;;;1.92;0.82;;;;;;;16.09;34.14;96078.25;10296829;28;20476;-63
2022/04/02 08:26:56;;;;;;;;;;;;;;;16.44;35.63;96141.94;10295582;28;20419;-63
2022/04/02 08:32:02;;;;;;;4.97;1.80;;;;;;;16.22;34.90;96141.31;10295916;28;19960;-63
2022/04/02 08:37:41;;;;;;;2.42;1.08;;;;;;;16.16;35.02;96139.00;10296578;28;20516;-63
2022/04/02 08:42:59;;;;;;;4.63;1.50;;;;;;;16.25;34.13;96139.38;10295455;28;20072;-63
2022/04/02 08:48:23;;;;;;;4.72;1.05;;;;;;;16.33;33.73;96135.56;10295147;28;20073;-63
2022/04/02 08:53:41;;;;;;;3.92;1.30;;;;;;;16.06;32.66;96060.94;10295073;28;20534;-63
2022/04/02 08:58:56;;;;;;;6.80;1.70;;;;;;;16.64;34.68;96098.19;10295368;28;20058;-63
2022/04/02 09:04:17;;;;;;;3.35;1.45;;;;;;;16.99;32.65;96091.13;10293838;28;20061;-64
2022/04/02 09:10:03;;;;;;;7.60;2.70;;;;;;;17.04;32.65;96054.19;10291641;28;20504;-63
2022/04/02 09:15:16;;;;;;;5.10;1.80;;;;;;;17.17;31.68;96049.97;10291926;28;20637;-63
2022/04/02 09:20:46;;;;;;;5.22;1.92;;;;;;;17.47;29.81;96104.28;10291021;28;20061;-64
2022/04/02 09:26:10;;;;;;;2.90;1.75;;;;;;;17.60;30.73;96141.19;10291044;28;20065;-64
2022/04/02 09:31:34;;;;;;;7.03;1.80;;;;;;;17.45;30.77;96120.09;10290917;28;20080;-64
2022/04/02 09:36:44;;;;;;;2.38;1.50;;;;;;;17.52;30.23;96128.50;10290376;28;20069;-64
2022/04/02 09:41:46;;;;;;;2.55;1.17;;;;;;;17.84;30.96;96131.13;10290249;28;20057;-64
2022/04/02 09:46:57;;;;;;;1.35;1.23;;;;;;;17.78;28.88;96103.47;10290443;28;20092;-64
2022/04/02 09:52:04;;;;;;;3.85;1.65;;;;;;;17.80;29.07;96098.09;10290373;28;20068;-64
2022/04/02 09:57:09;;;;;;;6.07;2.00;;;;;;;17.80;29.78;96093.72;10290238;28;20096;-64
2022/04/02 10:02:21;;;;;;;2.10;1.35;;;;;;;17.98;28.79;96099.69;10289559;28;20062;-64
2022/04/02 10:07:38;;;;;;;3.67;1.60;;;;;;;17.67;30.19;96025.31;10290390;28;20069;-64
2022/04/02 10:12:42;;;;;;;3.10;1.60;;;;;;;17.95;29.99;96037.72;10290222;28;20072;-64
2022/04/02 10:17:50;;;;;;;1.92;1.42;;;;;;;17.68;29.03;95997.31;10289916;28;20065;-64
2022/04/02 10:23:00;;;;;;;4.20;1.73;;;;;;;18.20;30.68;96096.69;10289361;28;20065;-64
2022/04/02 10:28:01;;;;;;;4.95;1.85;;;;;;;18.00;28.77;96049.75;10290167;28;20495;-64
2022/04/02 10:38:33;;;;;;;7.53;1.77;;;;;;;18.16;29.18;96040.06;10289837;28;20069;-64
2022/04/02 10:43:48;;;;;;;1.05;1.00;;;;;;;18.18;29.73;96060.03;10289818;28;20069;-64
2022/04/02 10:48:52;;;;;;;1.83;1.15;;;;;;;18.19;29.87;96063.47;10295549;28;20110;-64
2022/04/02 10:54:13;;;;;;;3.85;1.80;;;;;;;18.30;30.27;96057.63;10296498;28;20073;-64
2022/04/02 10:59:14;;;;;;;6.03;2.53;;;;;;;18.37;29.87;96023.00;10295837;28;20079;-64
2022/04/02 11:04:45;;;;;;;4.22;1.58;;;;;;;18.58;29.70;96022.66;10296893;28;20057;-63
2022/04/02 11:09:44;;;;;;;2.05;1.50;;;;;;;18.72;28.32;96038.47;10299306;28;20492;-63
2022/04/02 11:14:49;;;;;;;2.53;1.42;;;;;;;18.68;29.14;96042.22;10299581;28;20524;-63
2022/04/02 11:19:54;;;;;;;3.15;1.55;;;;;;;18.81;28.62;96040.53;10299138;28;20057;-63
2022/04/02 11:25:10;;;;;;;4.60;1.83;;;;;;;19.02;29.40;96041.00;10298820;28;20460;-64
2022/04/02 11:30:11;;;;;;;2.60;1.30;;;;;;;18.56;28.65;95932.59;10298507;28;20069;-63
2022/04/02 11:35:14;;;;;;;1.77;1.08;;;;;;;18.98;28.91;95983.44;10299875;28;20069;-63
2022/04/02 11:40:15;;;;;;;3.65;1.10;;;;;;;19.21;27.68;96014.38;10298006;28;20061;-63
2022/04/02 11:45:19;;;;;;;2.40;1.02;;;;;;;19.07;27.30;96016.19;10298020;28;20069;-63
2022/04/02 11:50:27;;;;;;;1.05;0.98;;;;;;;19.07;27.07;96038.06;10297952;28;20073;-63
2022/04/02 11:55:27;;;;;;;3.13;2.78;;;;;;;18.85;27.42;96070.06;10297810;28;20523;-63
2022/04/02 12:00:37;;;;;;;59.60;40.88;;;;;;;18.52;28.51;96073.78;10302621;28;20063;-63
2022/04/02 12:05:43;;;;;;;79.68;63.15;;;;;;;18.07;30.88;96098.34;10336564;28;20061;-63
2022/04/02 12:10:47;;;;;;;47.83;39.47;;;;;;;17.26;31.94;96133.38;10334437;28;20072;-63
2022/04/02 12:16:01;;;;;;;65.22;58.28;;;;;;;16.36;35.93;96151.94;10333924;28;20479;-63
2022/04/02 12:21:09;;;;;;;8.95;7.05;;;;;;;15.37;40.41;96191.50;10333889;28;20065;-63
2022/04/02 12:26:08;;;;;;;2.40;1.52;;;;;;;15.09;39.95;96197.94;10334438;28;20088;-63
2022/04/02 12:31:07;;;;;;;1.92;1.33;;;;;;;14.56;42.12;96198.44;10333934;28;20072;-63
2022/04/02 12:36:09;;;;;;;;;;;;;;;14.15;45.60;96266.22;10333893;28;20041;-63
2022/04/02 12:41:28;;;;;;;4.03;1.50;;;;;;;13.88;49.06;96274.19;10333834;28;19949;-63
2022/04/02 12:46:28;;;;;;;1.63;1.20;;;;;;;13.40;52.02;96240.31;10332846;28;20096;-63
2022/04/02 12:51:29;;;;;;;1.30;1.20;;;;;;;13.87;53.63;96303.78;10333044;28;20075;-63
2022/04/02 12:56:33;;;;;;;4.38;1.60;;;;;;;14.21;52.38;96292.06;10333362;28;20069;-63
2022/04/02 13:01:35;;;;;;;2.25;1.48;;;;;;;14.83;49.97;96270.44;10307876;28;20057;-63
2022/04/02 13:06:55;;;;;;;3.38;2.58;;;;;;;15.17;47.44;96247.25;10291785;28;20084;-63
2022/04/02 13:11:57;;;;;;;4.15;2.35;;;;;;;15.39;47.14;96226.25;10291364;28;20538;-63
2022/04/02 13:17:19;;;;;;;1.85;1.30;;;;;;;15.53;46.34;96209.94;10291647;28;20072;-63
2022/04/02 13:22:25;;;;;;;6.28;4.22;;;;;;;15.23;43.87;96169.44;10290936;28;20068;-63
2022/04/02 13:28:01;;;;;;;4.30;1.60;;;;;;;15.17;42.73;96158.41;10290936;28;20069;-63
2022/04/02 13:33:19;;;;;;;2.67;1.35;;;;;;;14.94;44.11;96175.94;10277516;28;20073;-63
2022/04/02 13:38:51;;;;;;;4.55;2.20;;;;;;;14.93;43.52;96238.72;10290306;28;20068;-63
2022/04/02 13:43:55;;;;;;;5.63;4.32;;;;;;;14.79;42.51;96266.25;10290378;28;20495;-63
2022/04/02 13:49:03;;;;;;;1.70;1.13;;;;;;;14.70;41.77;96269.25;10291119;28;20084;-63
2022/04/02 13:54:05;;;;;;;2.65;1.30;;;;;;;14.91;46.82;96262.28;10290180;28;20531;-63
2022/04/02 13:59:10;;;;;;;0.70;0.70;;;;;;;14.88;46.09;96228.47;10290000;28;20061;-63
2022/04/02 14:04:12;;;;;;;1.45;0.98;;;;;;;14.93;47.70;96230.88;10290450;28;20053;-63
2022/04/02 14:09:13;;;;;;;2.20;1.60;;;;;;;14.39;49.97;96233.06;10293105;28;20072;-63
2022/04/02 14:14:20;;;;;;;3.85;2.10;;;;;;;13.56;50.87;96190.25;10293097;28;20069;-63
2022/04/02 14:19:22;;;;;;;3.35;2.20;;;;;;;13.82;50.96;96230.09;10292187;28;20582;-63
2022/04/02 14:24:36;;;;;;;2.90;1.95;;;;;;;13.95;50.63;96212.22;10300189;28;20061;-63
2022/04/02 14:29:59;;;;;;;1.83;1.30;;;;;;;14.04;49.64;96192.75;10300855;28;20069;-63
2022/04/02 14:35:28;;;;;;;5.30;2.20;;;;;;;14.16;49.63;96200.94;10300930;28;20496;-63
2022/04/02 14:40:51;;;;;;;9.13;4.82;;;;;;;14.29;48.99;96216.94;10301126;28;20512;-63
2022/04/02 14:46:22;;;;;;;1.98;1.65;;;;;;;14.36;48.00;96207.97;10300509;28;20084;-63
2022/04/02 14:51:42;;;;;;;3.47;2.22;;;;;;;14.41;47.86;96198.19;10299999;28;20103;-63
2022/04/02 14:57:11;;;;;;;2.20;1.60;;;;;;;14.07;47.43;96216.09;10300260;28;20076;-63
2022/04/02 15:02:34;;;;;;;4.70;1.80;;;;;;;13.40;47.50;96256.84;10300246;28;20061;-63
2022/04/02 15:08:12;;;;;;;14.98;9.55;;;;;;;13.01;53.39;96306.81;10307770;28;20091;-62
2022/04/02 15:13:19;;;;;;;8.13;3.20;;;;;;;11.61;59.95;96297.25;10336856;28;20087;-62
2022/04/02 15:18:27;;;;;;;14.25;9.65;;;;;;;11.27;64.80;96386.50;10336203;28;20585;-62
2022/04/02 15:23:26;;;;;;;19.20;13.20;;;;;;;10.91;68.49;96402.09;10336617;28;20065;-62
2022/04/02 15:28:30;;;;;;;22.20;14.90;;;;;;;10.42;68.15;96410.97;10335770;28;20079;-61
2022/04/02 15:33:29;;;;;;;5.22;2.75;;;;;;;10.38;68.63;96399.81;10332711;28;20077;-61
2022/04/02 15:38:28;;;;;;;;;;;;;;;10.33;69.57;96380.03;10334580;28;20146;-61
2022/04/02 15:43:29;;;;;;;11.73;7.32;;;;;;;9.57;69.82;96248.69;10334575;28;19980;-62
2022/04/02 15:49:05;;;;;;;13.00;7.68;;;;;;;10.30;69.85;96287.63;10333823;28;20081;-61
2022/04/02 15:54:28;;;;;;;8.02;4.45;;;;;;;10.38;69.16;96274.50;10335060;28;20080;-61
2022/04/02 15:59:29;;;;;;;7.15;4.28;;;;;;;10.29;70.19;96239.28;10334810;28;20068;-61
2022/04/02 16:04:28;;;;;;;5.63;3.97;;;;;;;9.17;70.36;96114.88;10334080;28;20072;-61
2022/04/02 16:10:05;;;;;;;21.27;9.27;;;;;;;9.84;70.82;96241.19;10333764;28;20056;-61
2022/04/02 16:15:25;;;;;;;11.68;7.30;;;;;;;9.63;70.66;96226.97;10334326;28;20069;-61
2022/04/02 16:20:28;;;;;;;4.80;2.60;;;;;;;8.51;72.20;96153.28;10333553;28;20068;-61
2022/04/02 16:25:27;;;;;;;3.85;2.33;;;;;;;8.78;70.83;96277.78;10333929;28;20494;-61
2022/04/02 16:30:26;;;;;;;3.75;2.00;;;;;;;7.92;69.90;96139.69;10333445;28;20064;-61
2022/04/02 16:35:25;;;;;;;6.93;3.47;;;;;;;8.66;68.50;96242.63;10333156;28;20073;-61
2022/04/02 16:40:24;;;;;;;6.00;2.63;;;;;;;8.92;68.29;96313.75;10333637;28;20033;-61
2022/04/02 16:45:23;;;;;;;;;;;;;;;8.77;68.15;96296.78;10333154;28;20076;-61
2022/04/02 16:50:22;;;;;;;11.60;5.70;;;;;;;8.75;68.08;96293.34;10332239;28;19987;-61
2022/04/02 16:55:21;;;;;;;4.68;3.25;;;;;;;8.79;68.40;96309.69;10332467;28;20091;-61
2022/04/02 17:00:20;;;;;;;8.93;6.25;;;;;;;8.89;67.46;96334.50;10332347;28;20384;-61
2022/04/02 17:05:24;;;;;;;10.75;6.60;;;;;;;8.96;67.23;96346.44;10331917;28;20025;-61
2022/04/02 17:10:33;;;;;;;169.90;82.25;;;;;;;9.05;67.58;96368.72;10331966;28;20079;-61
2022/04/02 17:15:35;;;;;;;40.97;28.13;;;;;;;9.20;65.34;96368.44;10332031;28;20073;-61
2022/04/02 17:20:35;;;;;;;16.77;10.95;;;;;;;9.07;67.10;96315.22;10331606;28;20315;-61
2022/04/02 17:25:39;;;;;;;15.32;11.00;;;;;;;9.00;68.46;96319.66;10331413;28;20060;-61
2022/04/02 17:30:43;;;;;;;14.30;9.82;;;;;;;9.28;67.68;96361.44;10331060;28;20475;-61
2022/04/02 17:35:42;;;;;;;10.35;6.47;;;;;;;9.04;66.22;96310.09;10331181;28;20069;-61
2022/04/02 17:40:42;;;;;;;19.48;12.93;;;;;;;9.47;65.20;96376.66;10330853;28;20057;-61
2022/04/02 17:45:49;;;;;;;9.05;5.57;;;;;;;9.34;64.41;96348.38;10312145;28;20088;-61
2022/04/02 17:50:56;;;;;;;7.57;4.88;;;;;;;9.61;63.57;96390.19;10336330;28;20065;-61
2022/04/02 17:56:05;;;;;;;5.32;2.88;;;;;;;9.69;62.78;96395.19;10326829;28;20068;-61
2022/04/02 18:01:06;;;;;;;7.75;4.18;;;;;;;9.68;62.84;96407.31;10329813;28;20052;-61
2022/04/02 18:06:06;;;;;;;16.67;10.57;;;;;;;9.80;61.43;96415.72;10330690;28;20096;-61
2022/04/02 18:11:05;;;;;;;8.73;6.30;;;;;;;9.71;61.13;96402.06;10330394;28;20071;-61
2022/04/02 18:16:04;;;;;;;7.93;5.38;;;;;;;9.41;61.86;96343.09;10331232;28;20033;-61
2022/04/02 18:21:04;;;;;;;11.38;7.32;;;;;;;9.84;62.14;96417.34;10330173;28;20121;-61
2022/04/02 18:26:04;;;;;;;11.38;7.15;;;;;;;9.37;63.32;96360.41;10330063;28;20092;-61
2022/04/02 18:31:04;;;;;;;10.20;6.05;;;;;;;9.53;63.86;96408.44;10330174;28;20069;-61
2022/04/02 18:36:03;;;;;;;8.35;6.10;;;;;;;8.94;63.64;96312.84;10329755;28;20104;-61
2022/04/02 18:41:02;;;;;;;9.07;5.40;;;;;;;9.55;63.29;96418.78;10329670;28;20068;-61
2022/04/02 18:46:01;;;;;;;8.98;4.78;;;;;;;9.01;63.89;96354.13;10329698;28;20081;-61
2022/04/02 18:51:00;;;;;;;6.60;4.43;;;;;;;9.18;63.32;96410.78;10328130;28;20095;-61
2022/04/02 18:55:59;;;;;;;3.85;2.75;;;;;;;9.35;62.16;96455.38;10327837;28;20484;-61
2022/04/02 19:00:59;;;;;;;7.57;3.30;;;;;;;9.46;60.53;96450.84;10329458;28;20037;-61
2022/04/02 19:05:58;;;;;;;11.35;6.60;;;;;;;9.35;62.02;96471.78;10331424;28;20064;-61
2022/04/02 19:10:57;;;;;;;10.52;6.70;;;;;;;9.27;61.97;96493.44;10339933;28;20076;-61
2022/04/02 19:15:56;;;;;;;12.48;6.63;;;;;;;8.78;60.27;96453.66;10340211;28;20071;-61
2022/04/02 19:20:55;;;;;;;5.50;3.17;;;;;;;8.64;57.49;96409.88;10340302;28;20069;-61
2022/04/02 19:25:55;;;;;;;6.78;3.72;;;;;;;9.23;55.05;96508.19;10339884;28;20033;-61
2022/04/02 19:30:55;;;;;;;10.23;5.07;;;;;;;9.21;55.04;96504.78;10339489;28;20068;-61
2022/04/02 19:35:54;;;;;;;9.90;4.28;;;;;;;9.35;54.25;96530.47;10339299;28;20065;-61
2022/04/02 19:40:54;;;;;;;6.72;3.42;;;;;;;9.35;55.30;96527.88;10339170;28;20057;-61
2022/04/02 19:45:53;;;;;;;6.28;3.38;;;;;;;9.07;56.53;96476.50;10338587;28;20483;-61
2022/04/02 19:50:52;;;;;;;7.30;3.67;;;;;;;8.63;57.98;96412.53;10339175;28;20483;-61
2022/04/02 19:55:52;;;;;;;7.95;4.85;;;;;;;8.59;58.85;96436.72;10338232;28;20072;-61
2022/04/02 20:00:51;;;;;;;11.77;5.60;;;;;;;8.78;58.50;96489.00;10339391;28;20444;-61
2022/04/02 20:05:50;;;;;;;7.25;4.20;;;;;;;8.71;58.36;96454.63;10336100;28;20076;-61
2022/04/02 20:10:49;;;;;;;6.65;3.42;;;;;;;8.62;58.15;96422.00;10334889;28;20037;-61
2022/04/02 20:15:48;;;;;;;7.40;3.22;;;;;;;8.76;57.84;96462.31;10332977;28;20045;-61
2022/04/02 20:20:47;;;;;;;7.68;4.45;;;;;;;8.62;57.98;96441.81;10332752;28;20505;-61
2022/04/02 20:25:46;;;;;;;7.50;4.43;;;;;;;8.85;58.52;96513.91;10329860;28;20061;-61
2022/04/02 20:30:45;;;;;;;9.63;5.93;;;;;;;8.32;58.97;96450.84;10333994;28;20077;-61
2022/04/02 20:35:45;;;;;;;13.82;8.27;;;;;;;8.59;59.99;96542.72;10333983;28;20497;-61
2022/04/02 20:40:45;;;;;;;12.15;5.35;;;;;;;8.42;58.79;96553.28;10331942;28;20068;-61
2022/04/02 20:45:44;;;;;;;9.27;5.38;;;;;;;7.25;57.27;96402.13;10370361;28;20146;-62
2022/04/02 20:50:43;;;;;;;15.63;6.38;;;;;;;7.89;57.31;96576.22;10374678;28;20043;-62
2022/04/02 20:55:42;;;;;;;9.63;3.67;;;;;;;7.24;56.82;96512.22;10373780;28;20094;-62
2022/04/02 21:00:42;;;;;;;10.18;4.50;;;;;;;7.47;57.27;96583.44;10373427;28;20021;-62
2022/04/02 21:05:44;;;;;;;5.18;3.50;;;;;;;7.22;58.24;96575.88;10373752;28;20521;-62
2022/04/02 21:10:43;;;;;;;8.15;2.42;;;;;;;6.58;58.94;96537.56;10372813;28;20068;-62
2022/04/02 21:15:42;;;;;;;7.40;3.47;;;;;;;6.83;59.46;96592.44;10373106;28;20479;-62
2022/04/02 21:20:41;;;;;;;79.95;41.00;;;;;;;6.02;60.37;96475.09;10373247;28;20090;-61
2022/04/02 21:25:40;;;;;;;26.92;10.80;;;;;;;6.61;60.60;96589.09;10346034;28;20025;-61
2022/04/02 21:30:39;;;;;;;9.20;3.50;;;;;;;6.10;60.39;96530.03;10330429;28;20099;-62
2022/04/02 21:35:38;;;;;;;6.93;3.45;;;;;;;6.56;60.88;96595.97;10331496;28;20163;-62
2022/04/02 21:40:37;;;;;;;9.00;4.80;;;;;;;6.39;60.69;96557.41;10330955;28;20140;-62
2022/04/02 21:45:36;;;;;;;9.07;3.75;;;;;;;6.56;60.36;96589.13;10331120;28;20093;-62
2022/04/02 21:50:37;;;;;;;19.27;7.93;;;;;;;6.03;61.41;96504.31;10331550;28;20044;-61
2022/04/02 21:55:36;;;;;;;6.32;3.13;;;;;;;6.52;61.39;96592.56;10330418;28;20072;-61
2022/04/02 22:00:47;;;;;;;11.98;4.03;;;;;;;6.46;62.18;96600.31;10330467;28;20040;-61
2022/04/02 22:05:47;;;;;;;16.63;9.32;;;;;;;6.02;62.45;96548.91;10331183;28;20514;-62
2022/04/02 22:10:47;;;;;;;17.00;9.60;;;;;;;6.27;63.04;96602.09;10330864;28;20068;-61
2022/04/02 22:15:47;;;;;;;12.93;6.75;;;;;;;6.10;62.91;96583.25;10329500;28;20073;-61
2022/04/02 22:20:46;;;;;;;12.95;5.57;;;;;;;6.17;63.49;96595.25;10329464;28;20062;-62
2022/04/02 22:25:44;;;;;;;12.73;5.38;;;;;;;6.03;64.19;96592.72;10326225;28;20597;-62
2022/04/02 22:30:43;;;;;;;10.95;4.40;;;;;;;5.97;64.40;96588.41;10326824;28;20398;-61
2022/04/02 22:35:42;;;;;;;8.35;4.20;;;;;;;6.06;64.87;96597.84;10328444;28;20120;-61
2022/04/02 22:40:42;;;;;;;9.63;3.92;;;;;;;6.02;65.47;96610.72;10329935;28;20029;-61
2022/04/02 22:45:41;;;;;;;8.05;4.45;;;;;;;5.58;65.49;96521.53;10337136;28;20084;-62
2022/04/02 22:50:40;;;;;;;5.90;3.88;;;;;;;5.96;66.35;96560.09;10338159;28;20079;-61
2022/04/02 22:55:40;;;;;;;6.82;3.72;;;;;;;6.09;66.43;96587.53;10337983;28;20415;-61
2022/04/02 23:00:39;;;;;;;8.07;4.68;;;;;;;6.05;66.91;96574.69;10337479;28;20069;-61
2022/04/02 23:05:38;;;;;;;7.90;3.20;;;;;;;5.79;67.25;96551.53;10335312;28;20069;-61
2022/04/02 23:10:37;;;;;;;7.03;3.00;;;;;;;5.52;67.23;96512.97;10337087;28;20410;-61
2022/04/02 23:15:36;;;;;;;6.82;3.80;;;;;;;5.69;67.50;96535.25;10336558;28;20029;-61
2022/04/02 23:20:35;;;;;;;11.05;4.70;;;;;;;5.09;67.88;96456.44;10334159;28;20649;-62
2022/04/02 23:25:34;;;;;;;11.32;4.40;;;;;;;5.53;68.55;96540.44;10336448;28;20490;-61
2022/04/02 23:30:33;;;;;;;8.35;3.55;;;;;;;4.90;69.64;96459.84;10335791;28;20488;-61
2022/04/02 23:35:32;;;;;;;5.40;3.33;;;;;;;5.09;70.41;96501.88;10335843;28;20513;-61
2022/04/02 23:40:31;;;;;;;5.57;2.90;;;;;;;5.00;70.01;96464.16;10335982;28;20024;-61
2022/04/02 23:45:30;;;;;;;6.13;3.40;;;;;;;5.30;69.22;96488.16;10335739;28;20517;-61